Clermont, Indiana
Current Conditions -  °F | °C
As of 6:53 PM on Wednesday 22 Oct 2014 (Local Time) from KEYE Reporting Station
Clear Clear  
Wind Chill: 54°   Ceiling: Unl
Heat Index: 54°   Visibility: 10mi
Dew Point: 39°   Wind: 0mph
Humidity: 57%   Direction: NA
Pressure: 30.26"   Gusts: NA
Location:  39.7872°N, 86.3386°W
Report Text: KEYE 222253Z AUTO 00000KT 10SM CLR 12/04 A3026 RMK AO2 SLP249 T01220039
Loading
Personal Weather Stations






























Interactive Weather Map
Tropical Storm Tracking
New forecast layout! Learn more

10-Day Weather Forecast

Advertisements
Track Severe Weather on mobile